Fossil, Oregon
Current Conditions -  °F | °C
As of 1:35 AM on Thursday 27 Nov 2014 (Local Time) from KS39 Reporting Station
Scattered Clouds Scattered Clouds  
Wind Chill: 54°   Ceiling: Unl
Heat Index: 54°   Visibility: 10mi
Dew Point: 32°   Wind: 6mph
Humidity: 44%   Direction: 210°SSW
Pressure: 30.06"   Gusts: NA
Location:  45°N, 120.22°W
Report Text: KS39 270935Z AUTO 21005KT 10SM SCT080 SCT110 12/M00 A3006 RMK AO2
Loading
Personal Weather Stations






























Interactive Weather Map New forecast layout! Learn more

10-Day Weather Forecast

Advertisements
Track Severe Weather on mobile